createdAt,value
2018-07-15T00:00:00.176Z,3.218688
2018-07-15T00:00:12.754Z,3.218688
2018-07-15T00:00:25.204Z,3.218688
2018-07-15T00:00:37.668Z,3.218688
2018-07-15T00:00:50.091Z,3.218688
2018-07-15T00:01:02.533Z,3.218688
2018-07-15T00:01:14.968Z,8.04672
2018-07-15T00:01:27.405Z,9.656064
2018-07-15T00:01:39.808Z,9.656064
2018-07-15T00:01:52.330Z,8.04672
2018-07-15T00:02:04.754Z,3.218688
2018-07-15T00:02:17.171Z,3.218688
2018-07-15T00:02:29.573Z,0
2018-07-15T00:02:42.003Z,3.218688
2018-07-15T00:02:54.439Z,9.656064
2018-07-15T00:03:06.855Z,8.04672
2018-07-15T00:03:19.271Z,6.437376
2018-07-15T00:03:31.707Z,6.437376
2018-07-15T00:03:44.122Z,1.609344
2018-07-15T00:03:56.528Z,1.609344
2018-07-15T00:04:08.956Z,0
2018-07-15T00:04:21.387Z,1.609344
2018-07-15T00:04:33.802Z,3.218688
2018-07-15T00:04:46.222Z,6.437376
2018-07-15T00:04:58.653Z,1.609344
2018-07-15T00:05:11.113Z,3.218688
2018-07-15T00:05:23.539Z,8.04672
2018-07-15T00:05:35.991Z,11.265408
2018-07-15T00:05:48.435Z,6.437376
2018-07-15T00:06:00.839Z,6.437376
2018-07-15T00:06:13.240Z,8.04672
2018-07-15T00:06:25.634Z,8.04672
2018-07-15T00:06:38.040Z,6.437376
2018-07-15T00:06:50.599Z,4.828032
2018-07-15T00:07:03.055Z,6.437376
2018-07-15T00:07:15.445Z,6.437376
2018-07-15T00:07:27.848Z,9.656064
2018-07-15T00:07:40.276Z,9.656064
2018-07-15T00:07:52.675Z,8.04672
2018-07-15T00:08:05.094Z,9.656064
2018-07-15T00:08:17.560Z,8.04672
2018-07-15T00:08:29.956Z,6.437376
2018-07-15T00:08:42.356Z,9.656064
2018-07-15T00:08:54.777Z,9.656064
2018-07-15T00:09:07.182Z,6.437376
2018-07-15T00:09:19.578Z,8.04672
2018-07-15T00:09:31.986Z,3.218688
2018-07-15T00:09:44.427Z,3.218688
2018-07-15T00:09:56.832Z,6.437376
2018-07-15T00:10:09.233Z,9.656064
2018-07-15T00:10:21.632Z,9.656064
2018-07-15T00:10:34.033Z,6.437376
2018-07-15T00:10:46.445Z,8.04672
2018-07-15T00:10:58.834Z,4.828032
2018-07-15T00:11:11.245Z,8.04672
2018-07-15T00:11:23.717Z,6.437376
2018-07-15T00:11:36.113Z,4.828032
2018-07-15T00:11:48.611Z,8.04672
2018-07-15T00:12:01.062Z,4.828032
2018-07-15T00:12:13.474Z,3.218688
2018-07-15T00:12:25.882Z,1.609344
2018-07-15T00:12:38.431Z,1.609344
2018-07-15T00:12:50.845Z,1.609344
2018-07-15T00:13:03.432Z,3.218688
2018-07-15T00:13:15.829Z,0
2018-07-15T00:13:28.280Z,3.218688
2018-07-15T00:13:40.701Z,3.218688
2018-07-15T00:13:53.109Z,3.218688
2018-07-15T00:14:05.539Z,1.609344
2018-07-15T00:14:17.994Z,1.609344
2018-07-15T00:14:30.380Z,1.609344
2018-07-15T00:14:42.782Z,1.609344
2018-07-15T00:14:55.180Z,1.609344
2018-07-15T00:15:07.593Z,1.609344
2018-07-15T00:15:19.983Z,1.609344
2018-07-15T00:15:32.410Z,1.609344
2018-07-15T00:15:44.839Z,1.609344
2018-07-15T00:15:57.325Z,3.218688
2018-07-15T00:16:09.729Z,1.609344
2018-07-15T00:16:22.142Z,0
2018-07-15T00:16:34.549Z,0
2018-07-15T00:16:46.958Z,0
2018-07-15T00:16:59.350Z,0
2018-07-15T00:17:11.828Z,1.609344
2018-07-15T00:17:24.271Z,1.609344
2018-07-15T00:17:36.698Z,0
2018-07-15T00:17:49.106Z,1.609344
2018-07-15T00:18:01.578Z,3.218688
2018-07-15T00:18:14.072Z,3.218688
2018-07-15T00:18:26.481Z,1.609344
2018-07-15T00:18:38.875Z,3.218688
2018-07-15T00:18:51.278Z,1.609344
2018-07-15T00:19:03.699Z,0
2018-07-15T00:19:16.120Z,1.609344
2018-07-15T00:19:28.522Z,0
2018-07-15T00:19:40.941Z,3.218688
2018-07-15T00:19:53.350Z,3.218688
2018-07-15T00:20:05.776Z,1.609344
2018-07-15T00:20:18.441Z,3.218688
2018-07-15T00:20:30.841Z,3.218688
2018-07-15T00:20:43.528Z,1.609344
2018-07-15T00:20:55.931Z,1.609344
2018-07-15T00:21:08.344Z,1.609344
2018-07-15T00:21:20.729Z,0
2018-07-15T00:21:33.146Z,1.609344
2018-07-15T00:21:45.554Z,1.609344
2018-07-15T00:21:57.970Z,1.609344
2018-07-15T00:22:10.377Z,1.609344
2018-07-15T00:22:22.799Z,0
2018-07-15T00:22:35.233Z,0
2018-07-15T00:22:47.648Z,0
2018-07-15T00:23:00.063Z,0
2018-07-15T00:23:12.498Z,0
2018-07-15T00:23:24.920Z,0
2018-07-15T00:23:37.324Z,0
2018-07-15T00:23:49.740Z,1.609344
2018-07-15T00:24:02.137Z,3.218688
2018-07-15T00:24:14.561Z,1.609344
2018-07-15T00:24:26.980Z,4.828032
2018-07-15T00:24:39.361Z,1.609344
2018-07-15T00:24:51.772Z,1.609344
2018-07-15T00:25:04.242Z,1.609344
2018-07-15T00:25:16.641Z,1.609344
2018-07-15T00:25:29.067Z,1.609344
2018-07-15T00:25:41.498Z,1.609344
2018-07-15T00:25:53.902Z,1.609344
2018-07-15T00:26:06.360Z,1.609344
2018-07-15T00:26:18.773Z,3.218688
2018-07-15T00:26:31.160Z,3.218688
2018-07-15T00:26:43.608Z,1.609344
2018-07-15T00:26:56.021Z,6.437376
2018-07-15T00:27:08.464Z,3.218688
2018-07-15T00:27:20.867Z,1.609344
2018-07-15T00:27:33.305Z,3.218688
2018-07-15T00:27:45.736Z,3.218688
2018-07-15T00:27:58.151Z,3.218688
2018-07-15T00:28:10.579Z,1.609344
2018-07-15T00:28:23.105Z,0
2018-07-15T00:28:35.513Z,0
2018-07-15T00:28:47.949Z,0
2018-07-15T00:29:00.413Z,0
2018-07-15T00:29:12.844Z,1.609344
2018-07-15T00:29:25.233Z,1.609344
2018-07-15T00:29:37.629Z,3.218688
2018-07-15T00:29:50.061Z,4.828032
2018-07-15T00:30:02.453Z,3.218688
2018-07-15T00:30:14.857Z,1.609344
2018-07-15T00:30:27.257Z,1.609344
2018-07-15T00:30:39.651Z,0
2018-07-15T00:30:52.066Z,0
2018-07-15T00:31:04.502Z,0
2018-07-15T00:31:17.060Z,0
2018-07-15T00:31:29.490Z,1.609344
2018-07-15T00:31:41.890Z,1.609344
2018-07-15T00:31:54.269Z,1.609344
2018-07-15T00:32:06.651Z,3.218688
2018-07-15T00:32:19.070Z,3.218688
2018-07-15T00:32:31.460Z,1.609344
2018-07-15T00:32:43.879Z,0
2018-07-15T00:32:56.304Z,1.609344
2018-07-15T00:33:08.746Z,1.609344
2018-07-15T00:33:21.156Z,3.218688
2018-07-15T00:33:33.565Z,1.609344
2018-07-15T00:33:45.959Z,1.609344
2018-07-15T00:33:58.352Z,0
2018-07-15T00:34:10.774Z,0
2018-07-15T00:34:23.196Z,1.609344
2018-07-15T00:34:35.677Z,1.609344
2018-07-15T00:34:48.075Z,0
2018-07-15T00:35:00.476Z,1.609344
2018-07-15T00:35:12.896Z,0
2018-07-15T00:35:25.290Z,1.609344
2018-07-15T00:35:37.693Z,1.609344
2018-07-15T00:35:50.094Z,1.609344
2018-07-15T00:36:02.489Z,3.218688
2018-07-15T00:36:14.928Z,3.218688
2018-07-15T00:36:27.369Z,1.609344
2018-07-15T00:36:39.769Z,1.609344
2018-07-15T00:36:52.179Z,3.218688
2018-07-15T00:37:04.570Z,3.218688
2018-07-15T00:37:17.000Z,1.609344
2018-07-15T00:37:29.392Z,1.609344
2018-07-15T00:37:41.810Z,1.609344
2018-07-15T00:37:54.212Z,1.609344
2018-07-15T00:38:06.620Z,1.609344
2018-07-15T00:38:19.018Z,1.609344
2018-07-15T00:38:31.488Z,0
2018-07-15T00:38:43.904Z,1.609344
2018-07-15T00:38:56.342Z,1.609344
2018-07-15T00:39:08.736Z,1.609344
2018-07-15T00:39:21.160Z,3.218688
2018-07-15T00:39:33.544Z,1.609344
2018-07-15T00:39:45.949Z,1.609344
2018-07-15T00:39:58.380Z,1.609344
2018-07-15T00:40:10.827Z,0
2018-07-15T00:40:23.232Z,0
2018-07-15T00:40:35.619Z,3.218688
2018-07-15T00:40:48.057Z,1.609344
2018-07-15T00:41:00.453Z,1.609344
2018-07-15T00:41:12.841Z,0
2018-07-15T00:41:25.338Z,0
2018-07-15T00:41:37.725Z,1.609344
2018-07-15T00:41:50.121Z,3.218688
2018-07-15T00:42:02.520Z,3.218688
2018-07-15T00:42:14.937Z,1.609344
2018-07-15T00:42:27.348Z,3.218688
2018-07-15T00:42:39.747Z,3.218688
2018-07-15T00:42:52.145Z,3.218688
2018-07-15T00:43:04.553Z,3.218688
2018-07-15T00:43:17.027Z,6.437376
2018-07-15T00:43:29.422Z,4.828032
2018-07-15T00:43:41.867Z,3.218688
2018-07-15T00:43:54.283Z,4.828032
2018-07-15T00:44:06.683Z,1.609344
2018-07-15T00:44:19.093Z,1.609344
2018-07-15T00:44:31.511Z,0
2018-07-15T00:44:43.928Z,0
2018-07-15T00:44:56.468Z,1.609344
2018-07-15T00:45:08.876Z,3.218688
2018-07-15T00:45:21.315Z,6.437376
2018-07-15T00:45:33.723Z,6.437376
2018-07-15T00:45:46.130Z,3.218688
2018-07-15T00:45:58.515Z,3.218688
2018-07-15T00:46:10.934Z,1.609344
2018-07-15T00:46:23.400Z,4.828032
2018-07-15T00:46:35.795Z,3.218688
2018-07-15T00:46:48.231Z,1.609344
2018-07-15T00:47:00.643Z,1.609344
2018-07-15T00:47:13.059Z,1.609344
2018-07-15T00:47:25.453Z,3.218688
2018-07-15T00:47:37.828Z,1.609344
2018-07-15T00:47:50.232Z,3.218688
2018-07-15T00:48:02.648Z,1.609344
2018-07-15T00:48:15.065Z,1.609344
2018-07-15T00:48:27.464Z,1.609344
2018-07-15T00:48:39.875Z,1.609344
2018-07-15T00:48:52.599Z,3.218688
2018-07-15T00:49:05.009Z,1.609344
2018-07-15T00:49:17.410Z,0
2018-07-15T00:49:29.856Z,1.609344
2018-07-15T00:49:42.267Z,0
2018-07-15T00:49:54.658Z,1.609344
2018-07-15T00:50:07.092Z,0
2018-07-15T00:50:19.502Z,1.609344
2018-07-15T00:50:31.898Z,0
2018-07-15T00:50:44.311Z,1.609344
2018-07-15T00:50:56.716Z,1.609344
2018-07-15T00:51:09.142Z,0
2018-07-15T00:51:21.551Z,1.609344
2018-07-15T00:51:33.926Z,1.609344
2018-07-15T00:51:46.332Z,1.609344
2018-07-15T00:51:58.821Z,1.609344
2018-07-15T00:52:11.239Z,0
2018-07-15T00:52:23.736Z,0
2018-07-15T00:52:36.126Z,0
2018-07-15T00:52:48.517Z,1.609344
2018-07-15T00:53:01.060Z,1.609344
2018-07-15T00:53:13.450Z,0
2018-07-15T00:53:25.915Z,1.609344
2018-07-15T00:53:38.337Z,1.609344
2018-07-15T00:53:50.767Z,0
2018-07-15T00:54:03.165Z,1.609344
2018-07-15T00:54:15.574Z,0
2018-07-15T00:54:27.969Z,1.609344
2018-07-15T00:54:40.370Z,3.218688
2018-07-15T00:54:52.756Z,1.609344
2018-07-15T00:55:05.155Z,1.609344
2018-07-15T00:55:18.054Z,1.609344
2018-07-15T00:55:31.250Z,0
2018-07-15T00:55:43.672Z,0
2018-07-15T00:55:56.069Z,0
2018-07-15T00:56:08.501Z,1.609344
2018-07-15T00:56:20.909Z,0
2018-07-15T00:56:33.533Z,1.609344
2018-07-15T00:56:45.927Z,0
2018-07-15T00:56:58.330Z,1.609344
2018-07-15T00:57:10.810Z,1.609344
2018-07-15T00:57:23.209Z,0
2018-07-15T00:57:35.645Z,0
2018-07-15T00:57:48.071Z,0
2018-07-15T00:58:00.479Z,0
2018-07-15T00:58:12.909Z,0
2018-07-15T00:58:25.342Z,0
2018-07-15T00:58:37.752Z,0
2018-07-15T00:58:50.166Z,0
2018-07-15T00:59:02.565Z,0
2018-07-15T00:59:14.983Z,0
2018-07-15T00:59:27.404Z,1.609344
2018-07-15T00:59:39.927Z,1.609344
2018-07-15T00:59:52.343Z,0
2018-07-15T01:00:04.808Z,0
2018-07-15T01:00:17.450Z,0
2018-07-15T01:00:29.876Z,0
2018-07-15T01:00:42.336Z,1.609344
2018-07-15T01:00:54.783Z,3.218688
2018-07-15T01:01:07.213Z,1.609344
2018-07-15T01:01:19.663Z,3.218688
2018-07-15T01:01:32.082Z,1.609344
2018-07-15T01:01:44.711Z,1.609344
2018-07-15T01:01:57.203Z,1.609344
2018-07-15T01:02:09.612Z,1.609344
2018-07-15T01:02:22.027Z,0
2018-07-15T01:02:34.495Z,1.609344
2018-07-15T01:02:46.939Z,1.609344
2018-07-15T01:02:59.389Z,4.828032
2018-07-15T01:03:11.812Z,3.218688
2018-07-15T01:03:24.229Z,1.609344
2018-07-15T01:03:36.638Z,1.609344
2018-07-15T01:03:49.045Z,1.609344
2018-07-15T01:04:01.508Z,1.609344
2018-07-15T01:04:13.940Z,0
2018-07-15T01:04:26.340Z,0
2018-07-15T01:04:38.759Z,1.609344
2018-07-15T01:04:51.159Z,0
2018-07-15T01:05:03.631Z,1.609344
2018-07-15T01:05:16.073Z,0
2018-07-15T01:05:28.476Z,0
2018-07-15T01:05:40.888Z,0
2018-07-15T01:05:53.294Z,0
2018-07-15T01:06:05.732Z,0
2018-07-15T01:06:18.145Z,0
2018-07-15T01:06:30.560Z,0
2018-07-15T01:06:42.976Z,0
2018-07-15T01:06:55.400Z,0
2018-07-15T01:07:07.883Z,0
2018-07-15T01:07:20.325Z,0
2018-07-15T01:07:32.732Z,0
2018-07-15T01:07:45.123Z,0
2018-07-15T01:07:57.540Z,0
2018-07-15T01:08:09.975Z,0
2018-07-15T01:08:22.398Z,0
2018-07-15T01:08:34.795Z,0
2018-07-15T01:08:47.233Z,0
2018-07-15T01:08:59.656Z,0
2018-07-15T01:09:12.080Z,0
2018-07-15T01:09:24.482Z,0
2018-07-15T01:09:36.902Z,0
2018-07-15T01:09:49.301Z,0
2018-07-15T01:10:01.699Z,0
2018-07-15T01:10:14.143Z,0
2018-07-15T01:10:26.581Z,0
2018-07-15T01:10:38.987Z,0
2018-07-15T01:10:51.384Z,0
2018-07-15T01:11:03.788Z,0
2018-07-15T01:11:16.210Z,0
2018-07-15T01:11:28.601Z,0
2018-07-15T01:11:41.009Z,0
2018-07-15T01:11:53.427Z,0
2018-07-15T01:12:05.848Z,0
2018-07-15T01:12:18.250Z,0
2018-07-15T01:12:30.647Z,0
2018-07-15T01:12:43.050Z,0
2018-07-15T01:12:55.477Z,0
2018-07-15T01:13:08.049Z,0
2018-07-15T01:13:20.515Z,0
2018-07-15T01:13:32.919Z,3.218688
2018-07-15T01:13:45.316Z,1.609344
2018-07-15T01:13:57.751Z,0
2018-07-15T01:14:10.165Z,0
2018-07-15T01:14:22.601Z,0
2018-07-15T01:14:35.020Z,0
2018-07-15T01:14:47.410Z,1.609344
2018-07-15T01:14:59.817Z,0
2018-07-15T01:15:12.242Z,0
2018-07-15T01:15:24.652Z,1.609344
2018-07-15T01:15:37.064Z,1.609344
2018-07-15T01:15:49.487Z,1.609344
2018-07-15T01:16:01.898Z,1.609344
2018-07-15T01:16:14.297Z,1.609344
2018-07-15T01:16:26.697Z,1.609344
2018-07-15T01:16:39.176Z,1.609344
2018-07-15T01:16:51.618Z,1.609344
2018-07-15T01:17:04.032Z,1.609344
2018-07-15T01:17:16.443Z,0
2018-07-15T01:17:28.835Z,0
2018-07-15T01:17:41.250Z,0
2018-07-15T01:17:53.701Z,0
2018-07-15T01:18:06.093Z,0
2018-07-15T01:18:18.568Z,1.609344
2018-07-15T01:18:30.993Z,0
2018-07-15T01:18:43.367Z,0
2018-07-15T01:18:55.874Z,0
2018-07-15T01:19:08.290Z,1.609344
2018-07-15T01:19:20.734Z,0
2018-07-15T01:19:33.144Z,0
2018-07-15T01:19:45.541Z,0
2018-07-15T01:19:57.926Z,0
2018-07-15T01:20:10.329Z,1.609344
2018-07-15T01:20:22.728Z,0
2018-07-15T01:20:35.337Z,0
2018-07-15T01:20:47.743Z,0
2018-07-15T01:21:00.154Z,1.609344
2018-07-15T01:21:12.548Z,1.609344
2018-07-15T01:21:25.021Z,3.218688
2018-07-15T01:21:37.434Z,1.609344
2018-07-15T01:21:49.827Z,1.609344
2018-07-15T01:22:02.232Z,1.609344
2018-07-15T01:22:14.636Z,1.609344
2018-07-15T01:22:27.038Z,1.609344
2018-07-15T01:22:39.455Z,1.609344
2018-07-15T01:22:51.853Z,1.609344
2018-07-15T01:23:04.317Z,1.609344
2018-07-15T01:23:16.711Z,0
2018-07-15T01:23:29.128Z,0
2018-07-15T01:23:41.553Z,0
2018-07-15T01:23:53.960Z,0
2018-07-15T01:24:06.391Z,0
2018-07-15T01:24:18.799Z,0
2018-07-15T01:24:31.230Z,0
2018-07-15T01:24:43.641Z,0
2018-07-15T01:24:56.025Z,0
2018-07-15T01:25:08.423Z,0
2018-07-15T01:25:20.824Z,0
2018-07-15T01:25:33.233Z,0
2018-07-15T01:25:45.706Z,0
2018-07-15T01:25:58.108Z,0
2018-07-15T01:26:10.512Z,0
2018-07-15T01:26:22.973Z,0
2018-07-15T01:26:35.440Z,0
2018-07-15T01:26:47.850Z,0
2018-07-15T01:27:00.234Z,0
2018-07-15T01:27:12.678Z,0
2018-07-15T01:27:25.083Z,0
2018-07-15T01:27:37.501Z,0
2018-07-15T01:27:49.886Z,0
2018-07-15T01:28:02.319Z,0
2018-07-15T01:28:14.745Z,0
2018-07-15T01:28:27.157Z,0
2018-07-15T01:28:39.538Z,0
2018-07-15T01:28:51.945Z,0
2018-07-15T01:29:04.358Z,0
2018-07-15T01:29:16.769Z,0
2018-07-15T01:29:29.165Z,0
2018-07-15T01:29:41.552Z,0
2018-07-15T01:29:53.993Z,0
2018-07-15T01:30:06.459Z,0
2018-07-15T01:30:18.864Z,0
2018-07-15T01:30:31.303Z,0
2018-07-15T01:30:43.732Z,0
2018-07-15T01:30:56.143Z,0
2018-07-15T01:31:08.545Z,0
2018-07-15T01:31:21.129Z,0
2018-07-15T01:31:33.596Z,0
2018-07-15T01:31:46.082Z,0
2018-07-15T01:31:58.650Z,0
2018-07-15T01:32:11.079Z,0
2018-07-15T01:32:23.502Z,0
2018-07-15T01:32:35.909Z,0
2018-07-15T01:32:48.322Z,0
2018-07-15T01:33:00.734Z,0
2018-07-15T01:33:13.148Z,0
2018-07-15T01:33:25.559Z,0
2018-07-15T01:33:37.992Z,0
2018-07-15T01:33:50.404Z,0
2018-07-15T01:34:02.824Z,1.609344
2018-07-15T01:34:15.226Z,3.218688
2018-07-15T01:34:27.611Z,1.609344
2018-07-15T01:34:40.043Z,3.218688
2018-07-15T01:34:52.478Z,1.609344
2018-07-15T01:35:04.886Z,1.609344
2018-07-15T01:35:17.313Z,1.609344
2018-07-15T01:35:29.715Z,1.609344
2018-07-15T01:35:42.105Z,1.609344
2018-07-15T01:35:54.509Z,1.609344
2018-07-15T01:36:06.906Z,3.218688
2018-07-15T01:36:19.314Z,1.609344
2018-07-15T01:36:31.755Z,1.609344
2018-07-15T01:36:44.174Z,3.218688
2018-07-15T01:36:56.618Z,1.609344
2018-07-15T01:37:09.020Z,1.609344
2018-07-15T01:37:21.435Z,0
2018-07-15T01:37:33.847Z,0
2018-07-15T01:37:46.254Z,0
2018-07-15T01:37:58.660Z,0
2018-07-15T01:38:11.045Z,0
2018-07-15T01:38:23.534Z,0
2018-07-15T01:38:35.949Z,0
2018-07-15T01:38:48.358Z,0
2018-07-15T01:39:00.775Z,0
2018-07-15T01:39:13.234Z,0
2018-07-15T01:39:25.645Z,0
2018-07-15T01:39:38.158Z,0
2018-07-15T01:39:50.578Z,0
2018-07-15T01:40:02.990Z,0
2018-07-15T01:40:15.402Z,0
2018-07-15T01:40:27.796Z,0
2018-07-15T01:40:40.216Z,3.218688
2018-07-15T01:40:52.601Z,1.609344
2018-07-15T01:41:04.995Z,1.609344
2018-07-15T01:41:17.389Z,0
2018-07-15T01:41:29.791Z,0
2018-07-15T01:41:42.251Z,0
2018-07-15T01:41:54.671Z,0
2018-07-15T01:42:07.097Z,0
2018-07-15T01:42:19.497Z,1.609344
2018-07-15T01:42:31.926Z,3.218688
2018-07-15T01:42:44.345Z,3.218688
2018-07-15T01:42:56.763Z,1.609344
2018-07-15T01:43:09.199Z,1.609344
2018-07-15T01:43:21.634Z,1.609344
2018-07-15T01:43:34.041Z,0
2018-07-15T01:43:46.427Z,0
2018-07-15T01:43:58.833Z,1.609344
2018-07-15T01:44:11.244Z,0
2018-07-15T01:44:23.655Z,0
2018-07-15T01:44:36.130Z,0
2018-07-15T01:44:48.523Z,0
2018-07-15T01:45:01.084Z,0
2018-07-15T01:45:13.521Z,0
2018-07-15T01:45:25.930Z,0
2018-07-15T01:45:38.325Z,0
2018-07-15T01:45:50.735Z,0
2018-07-15T01:46:03.138Z,0
2018-07-15T01:46:15.566Z,0
2018-07-15T01:46:27.984Z,0
2018-07-15T01:46:40.376Z,0
2018-07-15T01:46:52.779Z,0
2018-07-15T01:47:05.182Z,0
2018-07-15T01:47:17.591Z,0
2018-07-15T01:47:30.021Z,0
2018-07-15T01:47:42.437Z,0
2018-07-15T01:47:54.830Z,0
2018-07-15T01:48:07.249Z,0
2018-07-15T01:48:19.650Z,0
2018-07-15T01:48:32.055Z,0
2018-07-15T01:48:44.600Z,0
2018-07-15T01:48:57.023Z,0
2018-07-15T01:49:09.464Z,0
2018-07-15T01:49:21.900Z,0
2018-07-15T01:49:34.322Z,0
2018-07-15T01:49:46.719Z,0
2018-07-15T01:49:59.161Z,0
2018-07-15T01:50:11.571Z,0
2018-07-15T01:50:24.048Z,0
2018-07-15T01:50:36.516Z,0
2018-07-15T01:50:48.925Z,0
2018-07-15T01:51:01.342Z,0
2018-07-15T01:51:13.765Z,0
2018-07-15T01:51:26.202Z,0
2018-07-15T01:51:38.623Z,0
2018-07-15T01:51:51.040Z,0
2018-07-15T01:52:03.494Z,0
2018-07-15T01:52:15.904Z,0
2018-07-15T01:52:28.317Z,0
2018-07-15T01:52:40.775Z,0
2018-07-15T01:52:53.200Z,0
2018-07-15T01:53:06.096Z,0
2018-07-15T01:53:18.510Z,0
2018-07-15T01:53:30.905Z,0
2018-07-15T01:53:43.301Z,0
2018-07-15T01:53:55.690Z,0
2018-07-15T01:54:08.097Z,0
2018-07-15T01:54:20.520Z,0
2018-07-15T01:54:32.957Z,0
2018-07-15T01:54:45.381Z,0
2018-07-15T01:54:57.802Z,0
2018-07-15T01:55:10.223Z,0
2018-07-15T01:55:22.687Z,0
2018-07-15T01:55:35.101Z,0
2018-07-15T01:55:47.520Z,0
2018-07-15T01:55:59.926Z,0
2018-07-15T01:56:12.336Z,0
2018-07-15T01:56:24.733Z,0
2018-07-15T01:56:37.125Z,1.609344
2018-07-15T01:56:49.533Z,0
2018-07-15T01:57:01.915Z,0
2018-07-15T01:57:14.323Z,1.609344
2018-07-15T01:57:26.719Z,1.609344
2018-07-15T01:57:39.133Z,0
2018-07-15T01:57:51.547Z,0
2018-07-15T01:58:03.958Z,0
2018-07-15T01:58:16.397Z,1.609344
2018-07-15T01:58:28.823Z,1.609344
2018-07-15T01:58:41.270Z,0
2018-07-15T01:58:53.672Z,1.609344
2018-07-15T01:59:06.086Z,0
2018-07-15T01:59:18.578Z,0
2018-07-15T01:59:30.982Z,0
2018-07-15T01:59:43.393Z,0
2018-07-15T01:59:55.859Z,0
2018-07-15T02:00:08.432Z,0
2018-07-15T02:00:20.982Z,0
2018-07-15T02:00:33.434Z,0
2018-07-15T02:00:45.858Z,0
2018-07-15T02:00:58.291Z,0
2018-07-15T02:01:10.697Z,0
2018-07-15T02:01:23.134Z,0
2018-07-15T02:01:35.559Z,0
2018-07-15T02:01:48.050Z,0
2018-07-15T02:02:00.482Z,0
2018-07-15T02:02:12.944Z,0
2018-07-15T02:02:25.372Z,0
2018-07-15T02:02:37.768Z,0
2018-07-15T02:02:50.171Z,0
2018-07-15T02:03:02.573Z,0
2018-07-15T02:03:15.040Z,0
2018-07-15T02:03:27.447Z,0
2018-07-15T02:03:39.860Z,0
2018-07-15T02:03:52.280Z,0
2018-07-15T02:04:04.661Z,0
2018-07-15T02:04:17.062Z,0
2018-07-15T02:04:29.471Z,0
2018-07-15T02:04:41.869Z,0
2018-07-15T02:04:54.282Z,0
2018-07-15T02:05:06.693Z,0
2018-07-15T02:05:19.261Z,0
2018-07-15T02:05:31.675Z,0
2018-07-15T02:05:44.090Z,0
2018-07-15T02:05:56.491Z,0
2018-07-15T02:06:08.929Z,0
2018-07-15T02:06:21.347Z,0
2018-07-15T02:06:33.763Z,0
2018-07-15T02:06:46.179Z,0
2018-07-15T02:06:58.571Z,0
2018-07-15T02:07:10.979Z,0
2018-07-15T02:07:23.367Z,0
2018-07-15T02:07:35.764Z,0
2018-07-15T02:07:48.191Z,0
2018-07-15T02:08:00.611Z,0
2018-07-15T02:08:13.055Z,0
2018-07-15T02:08:25.450Z,0
2018-07-15T02:08:37.849Z,0
2018-07-15T02:08:50.238Z,0
2018-07-15T02:09:02.648Z,0
2018-07-15T02:09:15.072Z,0
2018-07-15T02:09:27.470Z,0
2018-07-15T02:09:39.891Z,0
2018-07-15T02:09:52.282Z,0
2018-07-15T02:10:04.911Z,0
2018-07-15T02:10:17.707Z,0
2018-07-15T02:10:30.109Z,0
2018-07-15T02:10:42.535Z,0
2018-07-15T02:10:54.937Z,0
2018-07-15T02:11:07.341Z,0
2018-07-15T02:11:19.785Z,0
2018-07-15T02:11:32.175Z,0
2018-07-15T02:11:44.561Z,0
2018-07-15T02:11:56.982Z,0
2018-07-15T02:12:09.379Z,0
2018-07-15T02:12:21.801Z,0
2018-07-15T02:12:34.242Z,0
2018-07-15T02:12:46.715Z,0
2018-07-15T02:12:59.193Z,0
2018-07-15T02:13:11.680Z,0
2018-07-15T02:13:24.128Z,0
2018-07-15T02:13:36.542Z,0
2018-07-15T02:13:49.081Z,0
2018-07-15T02:14:01.513Z,0
2018-07-15T02:14:13.930Z,0
2018-07-15T02:14:26.359Z,0
2018-07-15T02:14:38.784Z,0
2018-07-15T02:14:51.223Z,0
2018-07-15T02:15:03.633Z,0
2018-07-15T02:15:16.073Z,0
2018-07-15T02:15:28.514Z,0
2018-07-15T02:15:40.934Z,0
2018-07-15T02:15:53.333Z,0
2018-07-15T02:16:05.738Z,0
2018-07-15T02:16:18.154Z,0
2018-07-15T02:16:30.578Z,0
2018-07-15T02:16:42.962Z,0
2018-07-15T02:16:55.380Z,0
2018-07-15T02:17:07.805Z,0
2018-07-15T02:17:20.216Z,0
2018-07-15T02:17:32.616Z,0
2018-07-15T02:17:44.999Z,0
2018-07-15T02:17:57.410Z,0
2018-07-15T02:18:09.823Z,0
2018-07-15T02:18:22.227Z,0
2018-07-15T02:18:34.629Z,0
2018-07-15T02:18:47.070Z,0
2018-07-15T02:18:59.491Z,0
2018-07-15T02:19:11.917Z,0
2018-07-15T02:19:24.322Z,0
2018-07-15T02:19:36.770Z,0
2018-07-15T02:19:49.170Z,0
2018-07-15T02:20:01.575Z,0
2018-07-15T02:20:13.994Z,0
2018-07-15T02:20:26.404Z,0
2018-07-15T02:20:39.037Z,0
2018-07-15T02:20:51.449Z,0
2018-07-15T02:21:03.876Z,0
2018-07-15T02:21:16.284Z,0
2018-07-15T02:21:28.710Z,0
2018-07-15T02:21:41.126Z,0
2018-07-15T02:21:53.510Z,0
2018-07-15T02:22:05.920Z,0
2018-07-15T02:22:18.330Z,0
2018-07-15T02:22:30.788Z,0
2018-07-15T02:22:43.204Z,0
2018-07-15T02:22:55.597Z,0
2018-07-15T02:23:07.991Z,0
2018-07-15T02:23:20.385Z,0
2018-07-15T02:23:32.807Z,0
2018-07-15T02:23:45.209Z,0
2018-07-15T02:23:57.600Z,0
2018-07-15T02:24:10.000Z,0
2018-07-15T02:24:22.402Z,0
2018-07-15T02:24:34.803Z,0
2018-07-15T02:24:47.215Z,0
2018-07-15T02:24:59.620Z,0
2018-07-15T02:25:12.028Z,0
2018-07-15T02:25:24.420Z,0
2018-07-15T02:25:36.848Z,0
2018-07-15T02:25:49.245Z,0
2018-07-15T02:26:01.662Z,0
2018-07-15T02:26:14.085Z,0
2018-07-15T02:26:26.534Z,0
2018-07-15T02:26:38.942Z,0
2018-07-15T02:26:51.378Z,0
2018-07-15T02:27:03.803Z,0
2018-07-15T02:27:16.275Z,0
2018-07-15T02:27:28.684Z,0
2018-07-15T02:27:41.098Z,0
2018-07-15T02:27:53.519Z,0
2018-07-15T02:28:05.915Z,0
2018-07-15T02:28:18.493Z,0
2018-07-15T02:28:30.886Z,0
2018-07-15T02:28:43.302Z,0
2018-07-15T02:28:55.695Z,0
2018-07-15T02:29:08.096Z,0
2018-07-15T02:29:20.498Z,0
2018-07-15T02:29:32.964Z,0
2018-07-15T02:29:45.378Z,0
2018-07-15T02:29:57.782Z,0
2018-07-15T02:30:10.229Z,0
2018-07-15T02:30:22.666Z,0
2018-07-15T02:30:35.074Z,0
2018-07-15T02:30:47.526Z,0
2018-07-15T02:30:59.943Z,0
2018-07-15T02:31:12.378Z,0
2018-07-15T02:31:24.931Z,0
2018-07-15T02:31:37.356Z,0
2018-07-15T02:31:49.816Z,0
2018-07-15T02:32:02.423Z,0
2018-07-15T02:32:14.832Z,0
2018-07-15T02:32:27.283Z,0
2018-07-15T02:32:39.745Z,0
2018-07-15T02:32:52.171Z,0
2018-07-15T02:33:04.614Z,0
2018-07-15T02:33:17.038Z,0
2018-07-15T02:33:29.444Z,0
2018-07-15T02:33:41.938Z,0
2018-07-15T02:33:54.398Z,0
2018-07-15T02:34:06.852Z,0
2018-07-15T02:34:19.284Z,0
2018-07-15T02:34:31.725Z,0
2018-07-15T02:34:44.133Z,0
2018-07-15T02:34:56.531Z,0
2018-07-15T02:35:08.987Z,0
2018-07-15T02:35:21.435Z,0
2018-07-15T02:35:33.854Z,0
2018-07-15T02:35:46.348Z,0
2018-07-15T02:35:58.752Z,0
2018-07-15T02:36:11.186Z,0
2018-07-15T02:36:23.614Z,0
2018-07-15T02:36:36.392Z,0
2018-07-15T02:36:50.041Z,0
2018-07-15T02:37:02.907Z,0
2018-07-15T02:37:15.338Z,0
2018-07-15T02:37:27.764Z,0
2018-07-15T02:37:40.204Z,0
2018-07-15T02:37:52.624Z,0
2018-07-15T02:38:05.072Z,0
2018-07-15T02:38:17.501Z,0
2018-07-15T02:38:29.934Z,0
2018-07-15T02:38:42.359Z,0
2018-07-15T02:38:54.797Z,0
2018-07-15T02:39:07.251Z,0
2018-07-15T02:39:19.729Z,0
2018-07-15T02:39:32.177Z,0
2018-07-15T02:39:44.752Z,0
2018-07-15T02:39:57.185Z,0
2018-07-15T02:40:09.634Z,0
2018-07-15T02:40:22.062Z,0
2018-07-15T02:40:34.550Z,0
2018-07-15T02:40:47.008Z,0
2018-07-15T02:40:59.433Z,0
2018-07-15T02:41:11.856Z,0
2018-07-15T02:41:24.294Z,0
2018-07-15T02:41:36.753Z,0
2018-07-15T02:41:49.181Z,0
2018-07-15T02:42:01.609Z,0
2018-07-15T02:42:14.035Z,0
2018-07-15T02:42:26.524Z,0
2018-07-15T02:42:38.929Z,0
2018-07-15T02:42:51.356Z,0
2018-07-15T02:43:03.774Z,0
2018-07-15T02:43:16.232Z,0
2018-07-15T02:43:28.659Z,0
2018-07-15T02:43:41.075Z,0
2018-07-15T02:43:53.509Z,0
2018-07-15T02:44:05.978Z,0
2018-07-15T02:44:18.449Z,0
2018-07-15T02:44:30.879Z,0
2018-07-15T02:44:43.325Z,0
2018-07-15T02:44:55.922Z,0
2018-07-15T02:45:08.396Z,0
2018-07-15T02:45:20.804Z,0
2018-07-15T02:45:33.198Z,0
2018-07-15T02:45:45.606Z,0
2018-07-15T02:45:58.042Z,0
2018-07-15T02:46:10.563Z,0
2018-07-15T02:46:22.985Z,0
2018-07-15T02:46:35.392Z,0
2018-07-15T02:46:47.832Z,0
2018-07-15T02:47:00.238Z,0
2018-07-15T02:47:12.676Z,0
2018-07-15T02:47:25.103Z,0
2018-07-15T02:47:37.540Z,0